sensor_id;sensor_type;location;lat;lon;timestamp;P1;durP1;ratioP1;P2;durP2;ratioP2
77146;SDS011;66121;52.584;9.694;2023-01-23T00:01:17;15.77;;;7.85;;
77146;SDS011;66121;52.584;9.694;2023-01-23T00:03:53;18.27;;;8.60;;
77146;SDS011;66121;52.584;9.694;2023-01-23T00:06:19;15.18;;;8.02;;
77146;SDS011;66121;52.584;9.694;2023-01-23T00:08:44;11.55;;;6.85;;
77146;SDS011;66121;52.584;9.694;2023-01-23T00:11:12;13.30;;;8.00;;
77146;SDS011;66121;52.584;9.694;2023-01-23T00:13:39;14.85;;;7.28;;
77146;SDS011;66121;52.584;9.694;2023-01-23T00:16:08;16.08;;;8.20;;
77146;SDS011;66121;52.584;9.694;2023-01-23T00:18:37;15.68;;;8.13;;
77146;SDS011;66121;52.584;9.694;2023-01-23T00:21:03;17.52;;;8.23;;
77146;SDS011;66121;52.584;9.694;2023-01-23T00:23:34;14.88;;;7.63;;
77146;SDS011;66121;52.584;9.694;2023-01-23T00:26:06;16.50;;;8.60;;
77146;SDS011;66121;52.584;9.694;2023-01-23T00:28:34;18.45;;;8.45;;
77146;SDS011;66121;52.584;9.694;2023-01-23T00:31:07;17.10;;;7.65;;
77146;SDS011;66121;52.584;9.694;2023-01-23T00:33:36;19.15;;;8.95;;
77146;SDS011;66121;52.584;9.694;2023-01-23T00:36:03;19.27;;;8.80;;
77146;SDS011;66121;52.584;9.694;2023-01-23T00:38:28;19.88;;;8.60;;
77146;SDS011;66121;52.584;9.694;2023-01-23T00:40:53;20.13;;;9.57;;
77146;SDS011;66121;52.584;9.694;2023-01-23T00:43:20;18.85;;;9.07;;
77146;SDS011;66121;52.584;9.694;2023-01-23T00:45:46;18.50;;;9.10;;
77146;SDS011;66121;52.584;9.694;2023-01-23T00:48:12;19.30;;;9.15;;
77146;SDS011;66121;52.584;9.694;2023-01-23T00:50:37;25.43;;;8.77;;
77146;SDS011;66121;52.584;9.694;2023-01-23T00:53:02;16.53;;;8.53;;
77146;SDS011;66121;52.584;9.694;2023-01-23T00:55:28;19.30;;;8.33;;
77146;SDS011;66121;52.584;9.694;2023-01-23T00:57:53;18.80;;;8.20;;
77146;SDS011;66121;52.584;9.694;2023-01-23T01:00:18;17.57;;;8.20;;
77146;SDS011;66121;52.584;9.694;2023-01-23T01:02:43;16.63;;;8.95;;
77146;SDS011;66121;52.584;9.694;2023-01-23T01:05:09;14.52;;;7.95;;
77146;SDS011;66121;52.584;9.694;2023-01-23T01:07:34;19.27;;;7.97;;
77146;SDS011;66121;52.584;9.694;2023-01-23T01:09:59;19.80;;;8.83;;
77146;SDS011;66121;52.584;9.694;2023-01-23T01:12:25;18.17;;;9.00;;
77146;SDS011;66121;52.584;9.694;2023-01-23T01:14:50;15.30;;;8.40;;
77146;SDS011;66121;52.584;9.694;2023-01-23T01:17:15;17.15;;;8.93;;
77146;SDS011;66121;52.584;9.694;2023-01-23T01:19:40;14.77;;;7.73;;
77146;SDS011;66121;52.584;9.694;2023-01-23T01:22:06;17.88;;;8.38;;
77146;SDS011;66121;52.584;9.694;2023-01-23T01:24:31;20.37;;;8.33;;
77146;SDS011;66121;52.584;9.694;2023-01-23T01:26:56;15.43;;;7.93;;
77146;SDS011;66121;52.584;9.694;2023-01-23T01:29:22;19.27;;;8.97;;
77146;SDS011;66121;52.584;9.694;2023-01-23T01:31:47;17.00;;;7.75;;
77146;SDS011;66121;52.584;9.694;2023-01-23T01:34:12;15.60;;;8.00;;
77146;SDS011;66121;52.584;9.694;2023-01-23T01:36:38;17.57;;;8.40;;
77146;SDS011;66121;52.584;9.694;2023-01-23T01:39:03;14.98;;;7.82;;
77146;SDS011;66121;52.584;9.694;2023-01-23T01:41:29;18.25;;;8.07;;
77146;SDS011;66121;52.584;9.694;2023-01-23T01:43:55;21.92;;;9.57;;
77146;SDS011;66121;52.584;9.694;2023-01-23T01:46:28;17.92;;;7.97;;
77146;SDS011;66121;52.584;9.694;2023-01-23T01:49:08;21.05;;;8.90;;
77146;SDS011;66121;52.584;9.694;2023-01-23T01:51:41;17.95;;;8.43;;
77146;SDS011;66121;52.584;9.694;2023-01-23T01:54:15;18.25;;;9.32;;
77146;SDS011;66121;52.584;9.694;2023-01-23T01:56:52;15.25;;;7.35;;
77146;SDS011;66121;52.584;9.694;2023-01-23T01:59:23;13.10;;;7.70;;
77146;SDS011;66121;52.584;9.694;2023-01-23T02:01:54;16.58;;;8.60;;
77146;SDS011;66121;52.584;9.694;2023-01-23T02:04:28;18.65;;;8.90;;
77146;SDS011;66121;52.584;9.694;2023-01-23T02:06:55;17.85;;;9.43;;
77146;SDS011;66121;52.584;9.694;2023-01-23T02:09:23;19.85;;;9.48;;
77146;SDS011;66121;52.584;9.694;2023-01-23T02:11:49;18.17;;;7.78;;
77146;SDS011;66121;52.584;9.694;2023-01-23T02:14:15;22.38;;;9.00;;
77146;SDS011;66121;52.584;9.694;2023-01-23T02:16:41;21.20;;;8.45;;
77146;SDS011;66121;52.584;9.694;2023-01-23T02:24:35;16.50;;;7.87;;
77146;SDS011;66121;52.584;9.694;2023-01-23T02:29:39;13.75;;;7.15;;
77146;SDS011;66121;52.584;9.694;2023-01-23T02:32:06;17.63;;;8.48;;
77146;SDS011;66121;52.584;9.694;2023-01-23T02:34:31;16.10;;;7.55;;
77146;SDS011;66121;52.584;9.694;2023-01-23T02:36:57;19.30;;;8.40;;
77146;SDS011;66121;52.584;9.694;2023-01-23T02:39:23;21.08;;;8.25;;
77146;SDS011;66121;52.584;9.694;2023-01-23T02:41:49;14.32;;;7.38;;
77146;SDS011;66121;52.584;9.694;2023-01-23T02:44:28;19.20;;;8.35;;
77146;SDS011;66121;52.584;9.694;2023-01-23T02:47:02;20.95;;;8.35;;
77146;SDS011;66121;52.584;9.694;2023-01-23T02:49:29;19.92;;;8.30;;
77146;SDS011;66121;52.584;9.694;2023-01-23T02:51:55;15.65;;;8.00;;
77146;SDS011;66121;52.584;9.694;2023-01-23T02:54:21;15.52;;;8.07;;
77146;SDS011;66121;52.584;9.694;2023-01-23T02:56:47;20.98;;;8.52;;
77146;SDS011;66121;52.584;9.694;2023-01-23T02:59:12;16.25;;;8.13;;
77146;SDS011;66121;52.584;9.694;2023-01-23T03:01:56;16.67;;;8.55;;
77146;SDS011;66121;52.584;9.694;2023-01-23T03:04:22;20.42;;;8.63;;
77146;SDS011;66121;52.584;9.694;2023-01-23T03:06:47;17.10;;;7.63;;
77146;SDS011;66121;52.584;9.694;2023-01-23T03:09:14;21.75;;;8.02;;
77146;SDS011;66121;52.584;9.694;2023-01-23T03:11:42;23.50;;;8.77;;
77146;SDS011;66121;52.584;9.694;2023-01-23T03:14:10;18.88;;;8.60;;
77146;SDS011;66121;52.584;9.694;2023-01-23T03:16:39;16.92;;;7.95;;
77146;SDS011;66121;52.584;9.694;2023-01-23T03:19:07;17.27;;;7.68;;
77146;SDS011;66121;52.584;9.694;2023-01-23T03:21:37;19.83;;;8.77;;
77146;SDS011;66121;52.584;9.694;2023-01-23T03:24:04;19.50;;;9.77;;
77146;SDS011;66121;52.584;9.694;2023-01-23T03:26:44;18.50;;;8.60;;
77146;SDS011;66121;52.584;9.694;2023-01-23T03:29:21;16.30;;;7.45;;
77146;SDS011;66121;52.584;9.694;2023-01-23T03:32:07;21.70;;;8.30;;
77146;SDS011;66121;52.584;9.694;2023-01-23T03:34:33;23.20;;;8.20;;
77146;SDS011;66121;52.584;9.694;2023-01-23T03:36:59;17.17;;;7.63;;
77146;SDS011;66121;52.584;9.694;2023-01-23T03:39:25;17.20;;;7.90;;
77146;SDS011;66121;52.584;9.694;2023-01-23T03:42:09;19.67;;;8.77;;
77146;SDS011;66121;52.584;9.694;2023-01-23T03:44:35;19.95;;;8.82;;
77146;SDS011;66121;52.584;9.694;2023-01-23T03:47:00;20.80;;;8.27;;
77146;SDS011;66121;52.584;9.694;2023-01-23T03:49:26;25.40;;;9.20;;
77146;SDS011;66121;52.584;9.694;2023-01-23T03:51:51;19.48;;;8.38;;
77146;SDS011;66121;52.584;9.694;2023-01-23T03:54:16;23.35;;;9.25;;
77146;SDS011;66121;52.584;9.694;2023-01-23T03:56:42;21.87;;;9.57;;
77146;SDS011;66121;52.584;9.694;2023-01-23T03:59:07;19.97;;;9.73;;
77146;SDS011;66121;52.584;9.694;2023-01-23T04:01:33;19.70;;;8.77;;
77146;SDS011;66121;52.584;9.694;2023-01-23T04:04:00;18.63;;;9.10;;
77146;SDS011;66121;52.584;9.694;2023-01-23T04:06:25;19.92;;;8.88;;
77146;SDS011;66121;52.584;9.694;2023-01-23T04:08:51;17.50;;;9.48;;
77146;SDS011;66121;52.584;9.694;2023-01-23T04:11:16;20.02;;;9.20;;
77146;SDS011;66121;52.584;9.694;2023-01-23T04:13:42;21.13;;;8.95;;
77146;SDS011;66121;52.584;9.694;2023-01-23T04:16:07;19.80;;;9.20;;
77146;SDS011;66121;52.584;9.694;2023-01-23T04:18:33;24.63;;;8.65;;
77146;SDS011;66121;52.584;9.694;2023-01-23T04:20:58;21.35;;;8.90;;
77146;SDS011;66121;52.584;9.694;2023-01-23T04:23:23;20.00;;;8.88;;
77146;SDS011;66121;52.584;9.694;2023-01-23T04:25:50;27.42;;;10.02;;
77146;SDS011;66121;52.584;9.694;2023-01-23T04:28:16;25.85;;;9.73;;
77146;SDS011;66121;52.584;9.694;2023-01-23T04:30:42;20.15;;;9.40;;
77146;SDS011;66121;52.584;9.694;2023-01-23T04:33:07;23.05;;;10.18;;
77146;SDS011;66121;52.584;9.694;2023-01-23T04:35:32;30.65;;;10.90;;
77146;SDS011;66121;52.584;9.694;2023-01-23T04:37:58;20.15;;;10.40;;
77146;SDS011;66121;52.584;9.694;2023-01-23T04:40:23;21.87;;;9.30;;
77146;SDS011;66121;52.584;9.694;2023-01-23T04:42:49;21.05;;;10.85;;
77146;SDS011;66121;52.584;9.694;2023-01-23T04:45:14;26.00;;;9.82;;
77146;SDS011;66121;52.584;9.694;2023-01-23T04:47:39;19.83;;;9.40;;
77146;SDS011;66121;52.584;9.694;2023-01-23T04:50:05;28.25;;;10.02;;
77146;SDS011;66121;52.584;9.694;2023-01-23T04:52:30;22.98;;;9.52;;
77146;SDS011;66121;52.584;9.694;2023-01-23T04:54:56;23.05;;;8.85;;
77146;SDS011;66121;52.584;9.694;2023-01-23T04:57:22;22.63;;;9.20;;
77146;SDS011;66121;52.584;9.694;2023-01-23T04:59:47;22.10;;;10.45;;
77146;SDS011;66121;52.584;9.694;2023-01-23T05:02:13;26.53;;;10.27;;
77146;SDS011;66121;52.584;9.694;2023-01-23T05:04:38;27.70;;;10.00;;
77146;SDS011;66121;52.584;9.694;2023-01-23T05:07:04;27.25;;;10.43;;
77146;SDS011;66121;52.584;9.694;2023-01-23T05:09:29;25.00;;;10.07;;
77146;SDS011;66121;52.584;9.694;2023-01-23T05:11:54;31.63;;;10.07;;
77146;SDS011;66121;52.584;9.694;2023-01-23T05:14:20;23.00;;;10.13;;
77146;SDS011;66121;52.584;9.694;2023-01-23T05:16:47;27.52;;;10.52;;
77146;SDS011;66121;52.584;9.694;2023-01-23T05:19:13;24.05;;;9.02;;
77146;SDS011;66121;52.584;9.694;2023-01-23T05:21:38;24.13;;;9.73;;
77146;SDS011;66121;52.584;9.694;2023-01-23T05:24:04;25.10;;;9.90;;
77146;SDS011;66121;52.584;9.694;2023-01-23T05:26:29;22.75;;;10.63;;
77146;SDS011;66121;52.584;9.694;2023-01-23T05:28:54;26.57;;;10.40;;
77146;SDS011;66121;52.584;9.694;2023-01-23T05:31:20;25.43;;;10.57;;
77146;SDS011;66121;52.584;9.694;2023-01-23T05:33:45;21.93;;;10.17;;
77146;SDS011;66121;52.584;9.694;2023-01-23T05:36:10;20.07;;;10.47;;
77146;SDS011;66121;52.584;9.694;2023-01-23T05:38:36;26.83;;;10.07;;
77146;SDS011;66121;52.584;9.694;2023-01-23T05:41:01;23.27;;;10.33;;
77146;SDS011;66121;52.584;9.694;2023-01-23T05:43:26;23.52;;;9.73;;
77146;SDS011;66121;52.584;9.694;2023-01-23T05:45:52;25.15;;;10.52;;
77146;SDS011;66121;52.584;9.694;2023-01-23T05:48:17;24.23;;;9.90;;
77146;SDS011;66121;52.584;9.694;2023-01-23T05:50:42;23.53;;;10.17;;
77146;SDS011;66121;52.584;9.694;2023-01-23T05:53:07;26.07;;;9.67;;
77146;SDS011;66121;52.584;9.694;2023-01-23T05:55:33;22.60;;;8.48;;
77146;SDS011;66121;52.584;9.694;2023-01-23T05:57:58;22.25;;;9.23;;
77146;SDS011;66121;52.584;9.694;2023-01-23T06:00:23;16.87;;;8.20;;
77146;SDS011;66121;52.584;9.694;2023-01-23T06:02:49;23.50;;;9.70;;
77146;SDS011;66121;52.584;9.694;2023-01-23T06:05:14;24.33;;;9.27;;
77146;SDS011;66121;52.584;9.694;2023-01-23T06:07:40;25.35;;;9.45;;
77146;SDS011;66121;52.584;9.694;2023-01-23T06:10:05;16.50;;;8.00;;
77146;SDS011;66121;52.584;9.694;2023-01-23T06:12:31;24.90;;;8.90;;
77146;SDS011;66121;52.584;9.694;2023-01-23T06:14:57;17.50;;;8.82;;
77146;SDS011;66121;52.584;9.694;2023-01-23T06:17:22;21.93;;;8.67;;
77146;SDS011;66121;52.584;9.694;2023-01-23T06:19:47;24.45;;;8.40;;
77146;SDS011;66121;52.584;9.694;2023-01-23T06:22:13;21.23;;;9.52;;
77146;SDS011;66121;52.584;9.694;2023-01-23T06:24:38;22.37;;;10.40;;
77146;SDS011;66121;52.584;9.694;2023-01-23T06:27:03;22.47;;;9.00;;
77146;SDS011;66121;52.584;9.694;2023-01-23T06:29:32;27.58;;;10.85;;
77146;SDS011;66121;52.584;9.694;2023-01-23T06:31:58;23.02;;;10.00;;
77146;SDS011;66121;52.584;9.694;2023-01-23T06:34:24;25.43;;;10.13;;
77146;SDS011;66121;52.584;9.694;2023-01-23T06:36:49;28.17;;;11.30;;
77146;SDS011;66121;52.584;9.694;2023-01-23T06:39:14;27.93;;;10.53;;
77146;SDS011;66121;52.584;9.694;2023-01-23T06:41:40;28.20;;;11.93;;
77146;SDS011;66121;52.584;9.694;2023-01-23T06:44:06;22.33;;;9.35;;
77146;SDS011;66121;52.584;9.694;2023-01-23T06:46:31;27.13;;;10.40;;
77146;SDS011;66121;52.584;9.694;2023-01-23T06:48:57;24.40;;;9.48;;
77146;SDS011;66121;52.584;9.694;2023-01-23T06:51:22;23.38;;;10.52;;
77146;SDS011;66121;52.584;9.694;2023-01-23T06:53:48;24.33;;;10.03;;
77146;SDS011;66121;52.584;9.694;2023-01-23T06:56:13;22.80;;;9.20;;
77146;SDS011;66121;52.584;9.694;2023-01-23T06:58:38;25.50;;;10.27;;
77146;SDS011;66121;52.584;9.694;2023-01-23T07:01:07;21.50;;;9.13;;
77146;SDS011;66121;52.584;9.694;2023-01-23T07:03:34;21.55;;;9.90;;
77146;SDS011;66121;52.584;9.694;2023-01-23T07:06:02;25.83;;;10.00;;
77146;SDS011;66121;52.584;9.694;2023-01-23T07:08:31;32.25;;;10.98;;
77146;SDS011;66121;52.584;9.694;2023-01-23T07:10:57;23.13;;;10.02;;
77146;SDS011;66121;52.584;9.694;2023-01-23T07:13:23;27.02;;;10.13;;
77146;SDS011;66121;52.584;9.694;2023-01-23T07:15:48;31.73;;;11.03;;
77146;SDS011;66121;52.584;9.694;2023-01-23T07:18:13;29.13;;;10.07;;
77146;SDS011;66121;52.584;9.694;2023-01-23T07:20:38;26.90;;;9.93;;
77146;SDS011;66121;52.584;9.694;2023-01-23T07:23:04;34.45;;;12.20;;
77146;SDS011;66121;52.584;9.694;2023-01-23T07:25:29;30.77;;;11.60;;
77146;SDS011;66121;52.584;9.694;2023-01-23T07:27:55;34.10;;;12.83;;
77146;SDS011;66121;52.584;9.694;2023-01-23T07:30:20;30.98;;;12.73;;
77146;SDS011;66121;52.584;9.694;2023-01-23T07:32:45;28.90;;;12.13;;
77146;SDS011;66121;52.584;9.694;2023-01-23T07:35:11;25.45;;;10.82;;
77146;SDS011;66121;52.584;9.694;2023-01-23T07:37:36;25.07;;;11.53;;
77146;SDS011;66121;52.584;9.694;2023-01-23T07:40:01;26.92;;;10.63;;
77146;SDS011;66121;52.584;9.694;2023-01-23T07:42:27;28.35;;;11.30;;
77146;SDS011;66121;52.584;9.694;2023-01-23T07:44:52;31.87;;;10.47;;
77146;SDS011;66121;52.584;9.694;2023-01-23T07:47:18;27.65;;;11.18;;
77146;SDS011;66121;52.584;9.694;2023-01-23T07:49:43;26.63;;;11.27;;
77146;SDS011;66121;52.584;9.694;2023-01-23T07:52:09;28.02;;;11.82;;
77146;SDS011;66121;52.584;9.694;2023-01-23T07:54:34;28.67;;;10.63;;
77146;SDS011;66121;52.584;9.694;2023-01-23T07:57:00;29.27;;;11.20;;
77146;SDS011;66121;52.584;9.694;2023-01-23T07:59:25;26.40;;;11.20;;
77146;SDS011;66121;52.584;9.694;2023-01-23T08:01:51;32.20;;;11.77;;
77146;SDS011;66121;52.584;9.694;2023-01-23T08:04:17;33.75;;;12.68;;
77146;SDS011;66121;52.584;9.694;2023-01-23T08:06:43;38.80;;;13.45;;
77146;SDS011;66121;52.584;9.694;2023-01-23T08:09:08;31.52;;;13.55;;
77146;SDS011;66121;52.584;9.694;2023-01-23T08:11:34;29.42;;;13.15;;
77146;SDS011;66121;52.584;9.694;2023-01-23T08:13:59;34.03;;;13.37;;
77146;SDS011;66121;52.584;9.694;2023-01-23T08:16:24;30.73;;;12.00;;
77146;SDS011;66121;52.584;9.694;2023-01-23T08:18:49;28.77;;;11.93;;
77146;SDS011;66121;52.584;9.694;2023-01-23T08:21:15;31.10;;;12.73;;
77146;SDS011;66121;52.584;9.694;2023-01-23T08:23:40;31.48;;;13.35;;
77146;SDS011;66121;52.584;9.694;2023-01-23T08:26:07;29.70;;;12.45;;
77146;SDS011;66121;52.584;9.694;2023-01-23T08:28:35;31.83;;;12.85;;
77146;SDS011;66121;52.584;9.694;2023-01-23T08:31:01;35.83;;;13.82;;
77146;SDS011;66121;52.584;9.694;2023-01-23T08:33:28;30.48;;;11.77;;
77146;SDS011;66121;52.584;9.694;2023-01-23T08:35:54;32.30;;;13.00;;
77146;SDS011;66121;52.584;9.694;2023-01-23T08:38:21;31.98;;;13.25;;
77146;SDS011;66121;52.584;9.694;2023-01-23T08:40:47;34.72;;;13.25;;
77146;SDS011;66121;52.584;9.694;2023-01-23T08:43:14;28.75;;;12.50;;
77146;SDS011;66121;52.584;9.694;2023-01-23T08:45:40;31.50;;;12.88;;
77146;SDS011;66121;52.584;9.694;2023-01-23T08:48:09;37.00;;;13.60;;
77146;SDS011;66121;52.584;9.694;2023-01-23T08:50:34;34.47;;;12.93;;
77146;SDS011;66121;52.584;9.694;2023-01-23T08:53:00;37.47;;;12.57;;
77146;SDS011;66121;52.584;9.694;2023-01-23T08:55:25;28.83;;;12.10;;
77146;SDS011;66121;52.584;9.694;2023-01-23T08:57:52;38.35;;;14.07;;
77146;SDS011;66121;52.584;9.694;2023-01-23T09:00:18;35.25;;;14.68;;
77146;SDS011;66121;52.584;9.694;2023-01-23T09:02:44;34.33;;;12.93;;
77146;SDS011;66121;52.584;9.694;2023-01-23T09:05:09;37.45;;;13.85;;
77146;SDS011;66121;52.584;9.694;2023-01-23T09:07:34;36.60;;;14.83;;
77146;SDS011;66121;52.584;9.694;2023-01-23T09:10:02;29.92;;;12.93;;
77146;SDS011;66121;52.584;9.694;2023-01-23T09:12:28;36.70;;;14.52;;
77146;SDS011;66121;52.584;9.694;2023-01-23T09:14:53;35.17;;;14.10;;
77146;SDS011;66121;52.584;9.694;2023-01-23T09:17:18;33.25;;;13.48;;
77146;SDS011;66121;52.584;9.694;2023-01-23T09:19:44;34.65;;;14.50;;
77146;SDS011;66121;52.584;9.694;2023-01-23T09:22:09;32.43;;;15.07;;
77146;SDS011;66121;52.584;9.694;2023-01-23T09:24:34;36.00;;;14.83;;
77146;SDS011;66121;52.584;9.694;2023-01-23T09:26:59;34.80;;;14.23;;
77146;SDS011;66121;52.584;9.694;2023-01-23T09:29:25;129.50;;;47.23;;
77146;SDS011;66121;52.584;9.694;2023-01-23T09:31:50;326.60;;;102.90;;
77146;SDS011;66121;52.584;9.694;2023-01-23T09:34:16;79.47;;;30.85;;
77146;SDS011;66121;52.584;9.694;2023-01-23T09:36:41;148.60;;;52.23;;
77146;SDS011;66121;52.584;9.694;2023-01-23T09:39:06;87.33;;;34.47;;
77146;SDS011;66121;52.584;9.694;2023-01-23T09:41:31;63.97;;;31.33;;
77146;SDS011;66121;52.584;9.694;2023-01-23T09:43:58;52.65;;;24.20;;
77146;SDS011;66121;52.584;9.694;2023-01-23T09:49:10;51.33;;;29.38;;
77146;SDS011;66121;52.584;9.694;2023-01-23T09:51:49;42.38;;;17.80;;
77146;SDS011;66121;52.584;9.694;2023-01-23T09:56:59;39.85;;;18.85;;
77146;SDS011;66121;52.584;9.694;2023-01-23T09:59:32;46.33;;;21.38;;
77146;SDS011;66121;52.584;9.694;2023-01-23T10:02:00;44.60;;;18.30;;
77146;SDS011;66121;52.584;9.694;2023-01-23T10:04:26;41.05;;;18.02;;
77146;SDS011;66121;52.584;9.694;2023-01-23T10:12:33;30.00;;;13.15;;
77146;SDS011;66121;52.584;9.694;2023-01-23T10:20:42;36.47;;;13.93;;
77146;SDS011;66121;52.584;9.694;2023-01-23T10:23:30;34.20;;;13.65;;
77146;SDS011;66121;52.584;9.694;2023-01-23T10:26:21;39.15;;;14.27;;
77146;SDS011;66121;52.584;9.694;2023-01-23T10:28:53;43.42;;;16.45;;
77146;SDS011;66121;52.584;9.694;2023-01-23T10:34:01;52.28;;;16.90;;
77146;SDS011;66121;52.584;9.694;2023-01-23T10:36:37;45.00;;;16.75;;
77146;SDS011;66121;52.584;9.694;2023-01-23T10:39:17;41.22;;;14.93;;
77146;SDS011;66121;52.584;9.694;2023-01-23T10:41:50;42.45;;;16.23;;
77146;SDS011;66121;52.584;9.694;2023-01-23T10:44:16;40.17;;;15.07;;
77146;SDS011;66121;52.584;9.694;2023-01-23T10:46:51;41.15;;;14.73;;
77146;SDS011;66121;52.584;9.694;2023-01-23T10:49:32;43.40;;;17.92;;
77146;SDS011;66121;52.584;9.694;2023-01-23T10:52:04;44.88;;;18.95;;
77146;SDS011;66121;52.584;9.694;2023-01-23T10:54:49;43.00;;;17.60;;
77146;SDS011;66121;52.584;9.694;2023-01-23T10:59:48;53.42;;;24.73;;
77146;SDS011;66121;52.584;9.694;2023-01-23T11:04:40;46.60;;;18.75;;
77146;SDS011;66121;52.584;9.694;2023-01-23T11:07:09;47.60;;;17.50;;
77146;SDS011;66121;52.584;9.694;2023-01-23T11:09:50;47.30;;;17.35;;
77146;SDS011;66121;52.584;9.694;2023-01-23T11:12:28;45.22;;;17.33;;
77146;SDS011;66121;52.584;9.694;2023-01-23T11:17:40;40.47;;;14.93;;
77146;SDS011;66121;52.584;9.694;2023-01-23T11:20:10;43.78;;;16.00;;
77146;SDS011;66121;52.584;9.694;2023-01-23T11:22:46;42.38;;;14.40;;
77146;SDS011;66121;52.584;9.694;2023-01-23T11:27:56;39.80;;;14.32;;
77146;SDS011;66121;52.584;9.694;2023-01-23T11:30:37;40.90;;;16.45;;
77146;SDS011;66121;52.584;9.694;2023-01-23T11:39:27;49.55;;;17.33;;
77146;SDS011;66121;52.584;9.694;2023-01-23T11:41:50;41.88;;;14.93;;
77146;SDS011;66121;52.584;9.694;2023-01-23T11:44:20;44.28;;;15.65;;
77146;SDS011;66121;52.584;9.694;2023-01-23T11:47:03;43.75;;;15.20;;
77146;SDS011;66121;52.584;9.694;2023-01-23T11:52:30;42.55;;;14.70;;
77146;SDS011;66121;52.584;9.694;2023-01-23T12:11:17;39.00;;;15.43;;
77146;SDS011;66121;52.584;9.694;2023-01-23T12:16:48;38.17;;;15.40;;
77146;SDS011;66121;52.584;9.694;2023-01-23T12:19:21;33.90;;;14.90;;
77146;SDS011;66121;52.584;9.694;2023-01-23T12:25:03;36.38;;;14.25;;
77146;SDS011;66121;52.584;9.694;2023-01-23T12:27:38;38.53;;;14.73;;
77146;SDS011;66121;52.584;9.694;2023-01-23T12:30:23;38.72;;;17.90;;
77146;SDS011;66121;52.584;9.694;2023-01-23T12:33:01;34.00;;;13.77;;
77146;SDS011;66121;52.584;9.694;2023-01-23T12:36:14;38.33;;;15.18;;
77146;SDS011;66121;52.584;9.694;2023-01-23T12:38:30;41.50;;;17.15;;
77146;SDS011;66121;52.584;9.694;2023-01-23T12:43:39;48.55;;;20.63;;
77146;SDS011;66121;52.584;9.694;2023-01-23T12:46:18;29.15;;;13.68;;
77146;SDS011;66121;52.584;9.694;2023-01-23T12:49:02;24.95;;;11.05;;
77146;SDS011;66121;52.584;9.694;2023-01-23T12:51:42;31.60;;;12.40;;
77146;SDS011;66121;52.584;9.694;2023-01-23T12:54:15;35.15;;;14.55;;
77146;SDS011;66121;52.584;9.694;2023-01-23T12:56:45;33.80;;;13.23;;
77146;SDS011;66121;52.584;9.694;2023-01-23T12:59:15;27.65;;;12.73;;
77146;SDS011;66121;52.584;9.694;2023-01-23T13:04:41;30.08;;;12.18;;
77146;SDS011;66121;52.584;9.694;2023-01-23T13:13:43;30.83;;;12.20;;
77146;SDS011;66121;52.584;9.694;2023-01-23T13:16:16;36.05;;;13.85;;
77146;SDS011;66121;52.584;9.694;2023-01-23T13:18:53;30.42;;;11.68;;
77146;SDS011;66121;52.584;9.694;2023-01-23T13:21:39;32.13;;;12.27;;
77146;SDS011;66121;52.584;9.694;2023-01-23T13:24:27;30.83;;;11.95;;
77146;SDS011;66121;52.584;9.694;2023-01-23T13:27:36;31.00;;;13.88;;
77146;SDS011;66121;52.584;9.694;2023-01-23T13:30:04;33.42;;;13.30;;
77146;SDS011;66121;52.584;9.694;2023-01-23T13:32:57;33.60;;;13.13;;
77146;SDS011;66121;52.584;9.694;2023-01-23T13:35:50;33.33;;;13.02;;
77146;SDS011;66121;52.584;9.694;2023-01-23T13:41:17;30.70;;;12.93;;
77146;SDS011;66121;52.584;9.694;2023-01-23T13:49:29;31.95;;;12.25;;
77146;SDS011;66121;52.584;9.694;2023-01-23T13:52:25;34.72;;;14.40;;
77146;SDS011;66121;52.584;9.694;2023-01-23T13:55:30;36.25;;;13.13;;
77146;SDS011;66121;52.584;9.694;2023-01-23T13:58:19;33.35;;;13.38;;
77146;SDS011;66121;52.584;9.694;2023-01-23T14:00:54;32.88;;;12.48;;
77146;SDS011;66121;52.584;9.694;2023-01-23T14:04:39;35.92;;;12.63;;
77146;SDS011;66121;52.584;9.694;2023-01-23T14:07:02;30.90;;;12.15;;
77146;SDS011;66121;52.584;9.694;2023-01-23T14:09:29;37.50;;;13.73;;
77146;SDS011;66121;52.584;9.694;2023-01-23T14:11:56;37.05;;;12.90;;
77146;SDS011;66121;52.584;9.694;2023-01-23T14:14:36;32.88;;;12.50;;
77146;SDS011;66121;52.584;9.694;2023-01-23T14:17:21;33.03;;;12.23;;
77146;SDS011;66121;52.584;9.694;2023-01-23T14:19:52;35.47;;;13.77;;
77146;SDS011;66121;52.584;9.694;2023-01-23T14:22:20;35.63;;;14.18;;
77146;SDS011;66121;52.584;9.694;2023-01-23T14:24:50;30.25;;;12.75;;
77146;SDS011;66121;52.584;9.694;2023-01-23T14:27:30;29.38;;;12.18;;
77146;SDS011;66121;52.584;9.694;2023-01-23T14:30:03;33.40;;;13.95;;
77146;SDS011;66121;52.584;9.694;2023-01-23T14:32:39;30.95;;;12.95;;
77146;SDS011;66121;52.584;9.694;2023-01-23T14:35:23;35.55;;;13.07;;
77146;SDS011;66121;52.584;9.694;2023-01-23T14:37:54;29.73;;;12.93;;
77146;SDS011;66121;52.584;9.694;2023-01-23T14:40:23;32.15;;;12.10;;
77146;SDS011;66121;52.584;9.694;2023-01-23T14:42:59;28.42;;;12.82;;
77146;SDS011;66121;52.584;9.694;2023-01-23T14:45:30;27.63;;;11.60;;
77146;SDS011;66121;52.584;9.694;2023-01-23T14:47:56;32.25;;;12.70;;
77146;SDS011;66121;52.584;9.694;2023-01-23T14:50:24;32.30;;;13.15;;
77146;SDS011;66121;52.584;9.694;2023-01-23T14:52:57;28.63;;;11.63;;
77146;SDS011;66121;52.584;9.694;2023-01-23T14:55:25;32.25;;;13.18;;
77146;SDS011;66121;52.584;9.694;2023-01-23T14:57:52;94.80;;;35.17;;
77146;SDS011;66121;52.584;9.694;2023-01-23T15:00:20;52.67;;;21.63;;
77146;SDS011;66121;52.584;9.694;2023-01-23T15:02:47;31.35;;;13.43;;
77146;SDS011;66121;52.584;9.694;2023-01-23T15:05:18;40.28;;;16.77;;
77146;SDS011;66121;52.584;9.694;2023-01-23T15:10:48;32.65;;;14.30;;
77146;SDS011;66121;52.584;9.694;2023-01-23T15:13:20;36.65;;;12.88;;
77146;SDS011;66121;52.584;9.694;2023-01-23T15:15:52;27.95;;;12.07;;
77146;SDS011;66121;52.584;9.694;2023-01-23T15:18:22;33.67;;;13.20;;
77146;SDS011;66121;52.584;9.694;2023-01-23T15:20:53;32.30;;;13.45;;
77146;SDS011;66121;52.584;9.694;2023-01-23T15:31:31;27.13;;;12.52;;
77146;SDS011;66121;52.584;9.694;2023-01-23T15:36:53;29.23;;;11.38;;
77146;SDS011;66121;52.584;9.694;2023-01-23T15:39:28;33.53;;;12.77;;
77146;SDS011;66121;52.584;9.694;2023-01-23T15:44:37;26.00;;;11.33;;
77146;SDS011;66121;52.584;9.694;2023-01-23T15:47:03;29.92;;;11.88;;
77146;SDS011;66121;52.584;9.694;2023-01-23T15:49:30;31.73;;;13.98;;
77146;SDS011;66121;52.584;9.694;2023-01-23T15:51:58;34.70;;;17.30;;
77146;SDS011;66121;52.584;9.694;2023-01-23T15:54:35;28.40;;;13.55;;
77146;SDS011;66121;52.584;9.694;2023-01-23T15:57:01;62.05;;;29.42;;
77146;SDS011;66121;52.584;9.694;2023-01-23T15:59:28;61.78;;;33.53;;
77146;SDS011;66121;52.584;9.694;2023-01-23T16:01:54;36.72;;;18.05;;
77146;SDS011;66121;52.584;9.694;2023-01-23T16:04:19;33.67;;;15.93;;
77146;SDS011;66121;52.584;9.694;2023-01-23T16:06:45;33.40;;;14.88;;
77146;SDS011;66121;52.584;9.694;2023-01-23T16:09:21;29.85;;;14.25;;
77146;SDS011;66121;52.584;9.694;2023-01-23T16:11:50;30.85;;;15.25;;
77146;SDS011;66121;52.584;9.694;2023-01-23T16:14:16;32.47;;;13.60;;
77146;SDS011;66121;52.584;9.694;2023-01-23T16:16:43;30.60;;;13.85;;
77146;SDS011;66121;52.584;9.694;2023-01-23T16:19:08;28.52;;;13.48;;
77146;SDS011;66121;52.584;9.694;2023-01-23T16:21:34;35.97;;;15.95;;
77146;SDS011;66121;52.584;9.694;2023-01-23T16:24:00;26.42;;;12.88;;